sensor_id;sensor_type;location;lat;lon;timestamp;P1;durP1;ratioP1;P2;durP2;ratioP2
24685;SDS011;12804;51.176;4.452;2024-01-06T00:01:38;7.38;;;1.80;;
24685;SDS011;12804;51.176;4.452;2024-01-06T00:04:04;8.82;;;1.85;;
24685;SDS011;12804;51.176;4.452;2024-01-06T00:06:30;6.55;;;1.88;;
24685;SDS011;12804;51.176;4.452;2024-01-06T00:08:56;7.45;;;2.00;;
24685;SDS011;12804;51.176;4.452;2024-01-06T00:11:22;4.25;;;1.98;;
24685;SDS011;12804;51.176;4.452;2024-01-06T00:13:48;3.20;;;1.60;;
24685;SDS011;12804;51.176;4.452;2024-01-06T00:16:16;4.95;;;1.63;;
24685;SDS011;12804;51.176;4.452;2024-01-06T00:18:43;3.78;;;1.90;;
24685;SDS011;12804;51.176;4.452;2024-01-06T00:21:09;10.38;;;2.08;;
24685;SDS011;12804;51.176;4.452;2024-01-06T00:23:35;5.28;;;2.03;;
24685;SDS011;12804;51.176;4.452;2024-01-06T00:26:00;5.10;;;2.08;;
24685;SDS011;12804;51.176;4.452;2024-01-06T00:28:27;7.80;;;2.08;;
24685;SDS011;12804;51.176;4.452;2024-01-06T00:30:53;8.45;;;2.40;;
24685;SDS011;12804;51.176;4.452;2024-01-06T00:33:19;7.60;;;2.45;;
24685;SDS011;12804;51.176;4.452;2024-01-06T00:35:45;6.00;;;2.13;;
24685;SDS011;12804;51.176;4.452;2024-01-06T00:38:11;5.43;;;2.08;;
24685;SDS011;12804;51.176;4.452;2024-01-06T00:40:37;6.72;;;2.15;;
24685;SDS011;12804;51.176;4.452;2024-01-06T00:43:03;5.03;;;2.22;;
24685;SDS011;12804;51.176;4.452;2024-01-06T00:45:29;3.38;;;2.10;;
24685;SDS011;12804;51.176;4.452;2024-01-06T00:47:56;4.30;;;2.47;;
24685;SDS011;12804;51.176;4.452;2024-01-06T00:50:22;6.13;;;2.60;;
24685;SDS011;12804;51.176;4.452;2024-01-06T00:52:48;4.13;;;2.17;;
24685;SDS011;12804;51.176;4.452;2024-01-06T00:55:18;7.22;;;3.35;;
24685;SDS011;12804;51.176;4.452;2024-01-06T00:57:46;7.75;;;3.35;;
24685;SDS011;12804;51.176;4.452;2024-01-06T01:00:13;7.13;;;3.10;;
24685;SDS011;12804;51.176;4.452;2024-01-06T01:02:39;6.43;;;2.85;;
24685;SDS011;12804;51.176;4.452;2024-01-06T01:05:04;5.35;;;2.33;;
24685;SDS011;12804;51.176;4.452;2024-01-06T01:07:32;5.93;;;2.42;;
24685;SDS011;12804;51.176;4.452;2024-01-06T01:09:58;6.63;;;2.60;;
24685;SDS011;12804;51.176;4.452;2024-01-06T01:12:24;5.07;;;2.80;;
24685;SDS011;12804;51.176;4.452;2024-01-06T01:14:50;4.43;;;2.83;;
24685;SDS011;12804;51.176;4.452;2024-01-06T01:17:17;3.88;;;3.10;;
24685;SDS011;12804;51.176;4.452;2024-01-06T01:19:42;6.68;;;4.28;;
24685;SDS011;12804;51.176;4.452;2024-01-06T01:22:09;6.07;;;4.10;;
24685;SDS011;12804;51.176;4.452;2024-01-06T01:24:35;7.38;;;4.15;;
24685;SDS011;12804;51.176;4.452;2024-01-06T01:27:01;10.32;;;5.18;;
24685;SDS011;12804;51.176;4.452;2024-01-06T01:29:26;7.75;;;5.07;;
24685;SDS011;12804;51.176;4.452;2024-01-06T01:31:52;8.68;;;5.55;;
24685;SDS011;12804;51.176;4.452;2024-01-06T01:34:18;8.77;;;5.72;;
24685;SDS011;12804;51.176;4.452;2024-01-06T01:36:44;11.52;;;6.18;;
24685;SDS011;12804;51.176;4.452;2024-01-06T01:39:10;9.18;;;5.75;;
24685;SDS011;12804;51.176;4.452;2024-01-06T01:41:36;11.80;;;5.53;;
24685;SDS011;12804;51.176;4.452;2024-01-06T01:44:02;14.02;;;6.28;;
24685;SDS011;12804;51.176;4.452;2024-01-06T01:46:28;11.13;;;6.05;;
24685;SDS011;12804;51.176;4.452;2024-01-06T01:48:55;13.75;;;7.95;;
24685;SDS011;12804;51.176;4.452;2024-01-06T01:51:23;20.38;;;9.02;;
24685;SDS011;12804;51.176;4.452;2024-01-06T01:53:52;16.10;;;9.43;;
24685;SDS011;12804;51.176;4.452;2024-01-06T01:56:18;18.95;;;9.10;;
24685;SDS011;12804;51.176;4.452;2024-01-06T01:58:44;17.88;;;9.15;;
24685;SDS011;12804;51.176;4.452;2024-01-06T02:01:11;16.60;;;9.40;;
24685;SDS011;12804;51.176;4.452;2024-01-06T02:03:38;19.60;;;10.15;;
24685;SDS011;12804;51.176;4.452;2024-01-06T02:06:06;16.60;;;8.93;;
24685;SDS011;12804;51.176;4.452;2024-01-06T02:08:32;16.50;;;8.70;;
24685;SDS011;12804;51.176;4.452;2024-01-06T02:10:58;16.42;;;8.57;;
24685;SDS011;12804;51.176;4.452;2024-01-06T02:13:23;15.77;;;8.27;;
24685;SDS011;12804;51.176;4.452;2024-01-06T02:15:49;17.58;;;7.88;;
24685;SDS011;12804;51.176;4.452;2024-01-06T02:18:15;13.32;;;7.93;;
24685;SDS011;12804;51.176;4.452;2024-01-06T02:20:44;16.98;;;8.73;;
24685;SDS011;12804;51.176;4.452;2024-01-06T02:23:13;14.80;;;8.77;;
24685;SDS011;12804;51.176;4.452;2024-01-06T02:25:38;15.93;;;9.18;;
24685;SDS011;12804;51.176;4.452;2024-01-06T02:28:04;15.75;;;9.13;;
24685;SDS011;12804;51.176;4.452;2024-01-06T02:30:30;18.15;;;9.43;;
24685;SDS011;12804;51.176;4.452;2024-01-06T02:32:56;19.73;;;9.43;;
24685;SDS011;12804;51.176;4.452;2024-01-06T02:35:22;16.40;;;8.05;;
24685;SDS011;12804;51.176;4.452;2024-01-06T02:37:48;15.70;;;8.02;;
24685;SDS011;12804;51.176;4.452;2024-01-06T02:40:13;17.50;;;8.57;;
24685;SDS011;12804;51.176;4.452;2024-01-06T02:42:39;15.93;;;8.02;;
24685;SDS011;12804;51.176;4.452;2024-01-06T02:45:06;15.60;;;7.72;;
24685;SDS011;12804;51.176;4.452;2024-01-06T02:47:33;17.20;;;7.93;;
24685;SDS011;12804;51.176;4.452;2024-01-06T02:49:59;10.63;;;6.72;;
24685;SDS011;12804;51.176;4.452;2024-01-06T02:52:25;11.85;;;7.65;;
24685;SDS011;12804;51.176;4.452;2024-01-06T02:54:51;11.77;;;7.30;;
24685;SDS011;12804;51.176;4.452;2024-01-06T02:57:17;14.73;;;7.57;;
24685;SDS011;12804;51.176;4.452;2024-01-06T02:59:43;10.85;;;6.72;;
24685;SDS011;12804;51.176;4.452;2024-01-06T03:02:09;12.75;;;7.05;;
24685;SDS011;12804;51.176;4.452;2024-01-06T03:04:36;12.38;;;6.75;;
24685;SDS011;12804;51.176;4.452;2024-01-06T03:07:01;11.73;;;7.10;;
24685;SDS011;12804;51.176;4.452;2024-01-06T03:09:27;11.93;;;7.22;;
24685;SDS011;12804;51.176;4.452;2024-01-06T03:11:53;12.98;;;6.70;;
24685;SDS011;12804;51.176;4.452;2024-01-06T03:14:19;12.43;;;6.88;;
24685;SDS011;12804;51.176;4.452;2024-01-06T03:16:45;10.70;;;6.32;;
24685;SDS011;12804;51.176;4.452;2024-01-06T03:19:11;10.60;;;6.72;;
24685;SDS011;12804;51.176;4.452;2024-01-06T03:21:36;11.32;;;6.78;;
24685;SDS011;12804;51.176;4.452;2024-01-06T03:24:03;12.88;;;7.07;;
24685;SDS011;12804;51.176;4.452;2024-01-06T03:26:29;12.13;;;6.70;;
24685;SDS011;12804;51.176;4.452;2024-01-06T03:28:55;14.65;;;6.63;;
24685;SDS011;12804;51.176;4.452;2024-01-06T03:31:21;13.85;;;6.53;;
24685;SDS011;12804;51.176;4.452;2024-01-06T03:33:47;12.68;;;7.15;;
24685;SDS011;12804;51.176;4.452;2024-01-06T03:36:13;13.50;;;7.13;;
24685;SDS011;12804;51.176;4.452;2024-01-06T03:38:42;9.35;;;6.15;;
24685;SDS011;12804;51.176;4.452;2024-01-06T03:41:08;11.63;;;6.25;;
24685;SDS011;12804;51.176;4.452;2024-01-06T03:43:33;14.57;;;7.00;;
24685;SDS011;12804;51.176;4.452;2024-01-06T03:45:59;11.05;;;6.68;;
24685;SDS011;12804;51.176;4.452;2024-01-06T03:48:25;11.40;;;6.25;;
24685;SDS011;12804;51.176;4.452;2024-01-06T03:50:51;10.38;;;5.90;;
24685;SDS011;12804;51.176;4.452;2024-01-06T03:53:17;12.57;;;5.85;;
24685;SDS011;12804;51.176;4.452;2024-01-06T03:55:42;11.38;;;6.00;;
24685;SDS011;12804;51.176;4.452;2024-01-06T03:58:08;11.35;;;6.53;;
24685;SDS011;12804;51.176;4.452;2024-01-06T04:00:34;10.52;;;5.97;;
24685;SDS011;12804;51.176;4.452;2024-01-06T04:03:00;9.77;;;6.03;;
24685;SDS011;12804;51.176;4.452;2024-01-06T04:05:25;12.05;;;6.22;;
24685;SDS011;12804;51.176;4.452;2024-01-06T04:07:51;14.35;;;6.10;;
24685;SDS011;12804;51.176;4.452;2024-01-06T04:10:17;11.63;;;6.75;;
24685;SDS011;12804;51.176;4.452;2024-01-06T04:12:43;10.77;;;6.50;;
24685;SDS011;12804;51.176;4.452;2024-01-06T04:15:08;11.27;;;6.55;;
24685;SDS011;12804;51.176;4.452;2024-01-06T04:17:34;14.63;;;7.00;;
24685;SDS011;12804;51.176;4.452;2024-01-06T04:20:00;13.25;;;7.15;;
24685;SDS011;12804;51.176;4.452;2024-01-06T04:22:26;10.45;;;6.32;;
24685;SDS011;12804;51.176;4.452;2024-01-06T04:24:51;10.90;;;6.28;;
24685;SDS011;12804;51.176;4.452;2024-01-06T04:27:17;10.77;;;6.10;;
24685;SDS011;12804;51.176;4.452;2024-01-06T04:29:43;14.98;;;6.03;;
24685;SDS011;12804;51.176;4.452;2024-01-06T04:32:09;9.32;;;5.57;;
24685;SDS011;12804;51.176;4.452;2024-01-06T04:34:34;12.90;;;6.05;;
24685;SDS011;12804;51.176;4.452;2024-01-06T04:37:00;9.15;;;5.15;;
24685;SDS011;12804;51.176;4.452;2024-01-06T04:39:26;13.93;;;6.32;;
24685;SDS011;12804;51.176;4.452;2024-01-06T04:41:52;11.63;;;5.88;;
24685;SDS011;12804;51.176;4.452;2024-01-06T04:44:20;9.23;;;5.40;;
24685;SDS011;12804;51.176;4.452;2024-01-06T04:46:47;10.23;;;5.53;;
24685;SDS011;12804;51.176;4.452;2024-01-06T04:49:13;8.07;;;5.35;;
24685;SDS011;12804;51.176;4.452;2024-01-06T04:51:38;10.23;;;5.25;;
24685;SDS011;12804;51.176;4.452;2024-01-06T04:54:04;7.90;;;5.32;;
24685;SDS011;12804;51.176;4.452;2024-01-06T04:56:30;11.30;;;5.57;;
24685;SDS011;12804;51.176;4.452;2024-01-06T04:58:56;11.73;;;4.97;;
24685;SDS011;12804;51.176;4.452;2024-01-06T05:01:22;8.82;;;5.38;;
24685;SDS011;12804;51.176;4.452;2024-01-06T05:03:49;9.35;;;5.35;;
24685;SDS011;12804;51.176;4.452;2024-01-06T05:06:15;9.15;;;4.38;;
24685;SDS011;12804;51.176;4.452;2024-01-06T05:08:40;7.85;;;4.00;;
24685;SDS011;12804;51.176;4.452;2024-01-06T05:11:10;8.05;;;4.57;;
24685;SDS011;12804;51.176;4.452;2024-01-06T05:13:36;9.10;;;4.90;;
24685;SDS011;12804;51.176;4.452;2024-01-06T05:16:02;7.45;;;4.50;;
24685;SDS011;12804;51.176;4.452;2024-01-06T05:18:28;8.20;;;4.35;;
24685;SDS011;12804;51.176;4.452;2024-01-06T05:20:54;6.68;;;4.03;;
24685;SDS011;12804;51.176;4.452;2024-01-06T05:23:21;6.97;;;4.10;;
24685;SDS011;12804;51.176;4.452;2024-01-06T05:25:47;4.60;;;3.63;;
24685;SDS011;12804;51.176;4.452;2024-01-06T05:28:13;5.32;;;3.95;;
24685;SDS011;12804;51.176;4.452;2024-01-06T05:30:38;5.40;;;3.67;;
24685;SDS011;12804;51.176;4.452;2024-01-06T05:33:04;6.60;;;3.92;;
24685;SDS011;12804;51.176;4.452;2024-01-06T05:35:30;9.13;;;4.18;;
24685;SDS011;12804;51.176;4.452;2024-01-06T05:37:56;8.85;;;3.63;;
24685;SDS011;12804;51.176;4.452;2024-01-06T05:40:22;8.90;;;4.03;;
24685;SDS011;12804;51.176;4.452;2024-01-06T05:42:47;6.53;;;4.05;;
24685;SDS011;12804;51.176;4.452;2024-01-06T05:45:13;6.18;;;4.40;;
24685;SDS011;12804;51.176;4.452;2024-01-06T05:47:39;5.70;;;4.10;;
24685;SDS011;12804;51.176;4.452;2024-01-06T05:50:05;5.45;;;4.10;;
24685;SDS011;12804;51.176;4.452;2024-01-06T05:52:34;7.43;;;4.35;;
24685;SDS011;12804;51.176;4.452;2024-01-06T05:55:00;8.30;;;5.28;;
24685;SDS011;12804;51.176;4.452;2024-01-06T05:57:26;7.13;;;5.20;;
24685;SDS011;12804;51.176;4.452;2024-01-06T05:59:51;11.65;;;5.53;;
24685;SDS011;12804;51.176;4.452;2024-01-06T06:02:17;9.43;;;5.63;;
24685;SDS011;12804;51.176;4.452;2024-01-06T06:04:43;10.30;;;5.80;;
24685;SDS011;12804;51.176;4.452;2024-01-06T06:07:09;8.43;;;5.65;;
24685;SDS011;12804;51.176;4.452;2024-01-06T06:09:34;8.20;;;5.90;;
24685;SDS011;12804;51.176;4.452;2024-01-06T06:12:00;8.02;;;5.65;;
24685;SDS011;12804;51.176;4.452;2024-01-06T06:14:26;10.13;;;6.03;;
24685;SDS011;12804;51.176;4.452;2024-01-06T06:16:53;11.45;;;6.30;;
24685;SDS011;12804;51.176;4.452;2024-01-06T06:19:19;8.63;;;6.28;;
24685;SDS011;12804;51.176;4.452;2024-01-06T06:21:45;12.15;;;7.40;;
24685;SDS011;12804;51.176;4.452;2024-01-06T06:24:11;8.63;;;6.28;;
24685;SDS011;12804;51.176;4.452;2024-01-06T06:26:37;10.65;;;6.38;;
24685;SDS011;12804;51.176;4.452;2024-01-06T06:29:03;11.90;;;6.57;;
24685;SDS011;12804;51.176;4.452;2024-01-06T06:31:28;9.38;;;6.13;;
24685;SDS011;12804;51.176;4.452;2024-01-06T06:33:54;10.90;;;7.22;;
24685;SDS011;12804;51.176;4.452;2024-01-06T06:36:20;15.90;;;7.47;;
24685;SDS011;12804;51.176;4.452;2024-01-06T06:38:46;10.90;;;7.07;;
24685;SDS011;12804;51.176;4.452;2024-01-06T06:41:11;9.00;;;6.45;;
24685;SDS011;12804;51.176;4.452;2024-01-06T06:43:37;10.80;;;6.85;;
24685;SDS011;12804;51.176;4.452;2024-01-06T06:46:03;10.75;;;6.10;;
24685;SDS011;12804;51.176;4.452;2024-01-06T06:48:29;10.15;;;6.30;;
24685;SDS011;12804;51.176;4.452;2024-01-06T06:50:55;7.93;;;5.57;;
24685;SDS011;12804;51.176;4.452;2024-01-06T06:53:20;8.13;;;5.78;;
24685;SDS011;12804;51.176;4.452;2024-01-06T06:55:46;11.48;;;5.35;;
24685;SDS011;12804;51.176;4.452;2024-01-06T06:58:12;7.97;;;5.50;;
24685;SDS011;12804;51.176;4.452;2024-01-06T07:00:38;8.88;;;5.68;;
24685;SDS011;12804;51.176;4.452;2024-01-06T07:03:04;9.43;;;5.25;;
24685;SDS011;12804;51.176;4.452;2024-01-06T07:05:30;7.47;;;5.03;;
24685;SDS011;12804;51.176;4.452;2024-01-06T07:07:56;8.05;;;5.63;;
24685;SDS011;12804;51.176;4.452;2024-01-06T07:10:22;9.43;;;5.57;;
24685;SDS011;12804;51.176;4.452;2024-01-06T07:12:48;10.02;;;5.43;;
24685;SDS011;12804;51.176;4.452;2024-01-06T07:15:13;7.20;;;5.63;;
24685;SDS011;12804;51.176;4.452;2024-01-06T07:17:39;8.77;;;5.32;;
24685;SDS011;12804;51.176;4.452;2024-01-06T07:20:06;10.57;;;5.30;;
24685;SDS011;12804;51.176;4.452;2024-01-06T07:22:33;7.53;;;5.18;;
24685;SDS011;12804;51.176;4.452;2024-01-06T07:25:02;8.77;;;4.72;;
24685;SDS011;12804;51.176;4.452;2024-01-06T07:27:28;8.00;;;5.00;;
24685;SDS011;12804;51.176;4.452;2024-01-06T07:29:54;9.32;;;5.35;;
24685;SDS011;12804;51.176;4.452;2024-01-06T07:32:21;8.63;;;5.13;;
24685;SDS011;12804;51.176;4.452;2024-01-06T07:34:48;14.25;;;5.90;;
24685;SDS011;12804;51.176;4.452;2024-01-06T07:37:13;7.78;;;5.85;;
24685;SDS011;12804;51.176;4.452;2024-01-06T07:39:39;8.80;;;6.40;;
24685;SDS011;12804;51.176;4.452;2024-01-06T07:42:05;8.90;;;6.07;;
24685;SDS011;12804;51.176;4.452;2024-01-06T07:44:31;9.15;;;6.43;;
24685;SDS011;12804;51.176;4.452;2024-01-06T07:46:56;9.70;;;6.47;;
24685;SDS011;12804;51.176;4.452;2024-01-06T07:49:22;10.23;;;6.35;;
24685;SDS011;12804;51.176;4.452;2024-01-06T07:51:48;8.48;;;5.95;;
24685;SDS011;12804;51.176;4.452;2024-01-06T07:54:14;9.82;;;6.15;;
24685;SDS011;12804;51.176;4.452;2024-01-06T07:56:39;9.27;;;6.05;;
24685;SDS011;12804;51.176;4.452;2024-01-06T07:59:05;10.52;;;5.88;;
24685;SDS011;12804;51.176;4.452;2024-01-06T08:01:31;8.57;;;5.57;;
24685;SDS011;12804;51.176;4.452;2024-01-06T08:03:57;8.90;;;5.43;;
24685;SDS011;12804;51.176;4.452;2024-01-06T08:06:23;10.48;;;5.60;;
24685;SDS011;12804;51.176;4.452;2024-01-06T08:08:50;9.02;;;5.75;;
24685;SDS011;12804;51.176;4.452;2024-01-06T08:11:16;7.30;;;4.90;;
24685;SDS011;12804;51.176;4.452;2024-01-06T08:13:42;9.85;;;6.10;;
24685;SDS011;12804;51.176;4.452;2024-01-06T08:16:07;7.93;;;5.60;;
24685;SDS011;12804;51.176;4.452;2024-01-06T08:18:33;9.57;;;5.70;;
24685;SDS011;12804;51.176;4.452;2024-01-06T08:20:59;7.78;;;5.18;;
24685;SDS011;12804;51.176;4.452;2024-01-06T08:23:25;11.60;;;5.30;;
24685;SDS011;12804;51.176;4.452;2024-01-06T08:25:51;7.07;;;5.03;;
24685;SDS011;12804;51.176;4.452;2024-01-06T08:28:16;7.97;;;4.72;;
24685;SDS011;12804;51.176;4.452;2024-01-06T08:30:44;7.90;;;5.38;;
24685;SDS011;12804;51.176;4.452;2024-01-06T08:33:10;6.45;;;4.55;;
24685;SDS011;12804;51.176;4.452;2024-01-06T08:35:36;6.15;;;4.15;;
24685;SDS011;12804;51.176;4.452;2024-01-06T08:38:08;8.45;;;4.50;;
24685;SDS011;12804;51.176;4.452;2024-01-06T08:40:34;7.03;;;4.32;;
24685;SDS011;12804;51.176;4.452;2024-01-06T08:43:01;5.50;;;4.28;;
24685;SDS011;12804;51.176;4.452;2024-01-06T08:45:28;5.32;;;3.92;;
24685;SDS011;12804;51.176;4.452;2024-01-06T08:47:53;7.15;;;4.03;;
24685;SDS011;12804;51.176;4.452;2024-01-06T08:50:19;8.48;;;3.45;;
24685;SDS011;12804;51.176;4.452;2024-01-06T08:52:45;6.53;;;3.88;;
24685;SDS011;12804;51.176;4.452;2024-01-06T08:55:11;6.57;;;4.07;;
24685;SDS011;12804;51.176;4.452;2024-01-06T08:57:37;7.43;;;3.80;;
24685;SDS011;12804;51.176;4.452;2024-01-06T09:00:03;5.35;;;3.40;;
24685;SDS011;12804;51.176;4.452;2024-01-06T09:02:30;6.80;;;3.90;;
24685;SDS011;12804;51.176;4.452;2024-01-06T09:04:56;6.15;;;3.78;;
24685;SDS011;12804;51.176;4.452;2024-01-06T09:07:22;5.75;;;3.40;;
24685;SDS011;12804;51.176;4.452;2024-01-06T09:09:48;11.02;;;3.63;;
24685;SDS011;12804;51.176;4.452;2024-01-06T09:12:13;6.22;;;3.50;;
24685;SDS011;12804;51.176;4.452;2024-01-06T09:14:39;4.20;;;3.60;;
24685;SDS011;12804;51.176;4.452;2024-01-06T09:17:06;5.38;;;3.35;;
24685;SDS011;12804;51.176;4.452;2024-01-06T09:19:31;7.10;;;3.15;;
24685;SDS011;12804;51.176;4.452;2024-01-06T09:21:57;4.97;;;3.05;;
24685;SDS011;12804;51.176;4.452;2024-01-06T09:24:23;4.25;;;3.10;;
24685;SDS011;12804;51.176;4.452;2024-01-06T09:26:49;4.65;;;3.38;;
24685;SDS011;12804;51.176;4.452;2024-01-06T09:29:15;4.30;;;3.03;;
24685;SDS011;12804;51.176;4.452;2024-01-06T09:31:41;4.25;;;3.20;;
24685;SDS011;12804;51.176;4.452;2024-01-06T09:34:11;4.53;;;3.60;;
24685;SDS011;12804;51.176;4.452;2024-01-06T09:36:37;4.78;;;3.15;;
24685;SDS011;12804;51.176;4.452;2024-01-06T09:39:03;5.68;;;3.40;;
24685;SDS011;12804;51.176;4.452;2024-01-06T09:41:30;5.93;;;3.40;;
24685;SDS011;12804;51.176;4.452;2024-01-06T09:43:56;4.60;;;3.55;;
24685;SDS011;12804;51.176;4.452;2024-01-06T09:48:52;4.35;;;3.10;;
24685;SDS011;12804;51.176;4.452;2024-01-06T09:51:19;5.80;;;3.10;;
24685;SDS011;12804;51.176;4.452;2024-01-06T09:53:51;4.28;;;3.17;;
24685;SDS011;12804;51.176;4.452;2024-01-06T09:56:32;5.38;;;3.08;;
24685;SDS011;12804;51.176;4.452;2024-01-06T09:58:59;4.15;;;3.05;;
24685;SDS011;12804;51.176;4.452;2024-01-06T10:01:26;4.57;;;3.45;;
24685;SDS011;12804;51.176;4.452;2024-01-06T10:03:52;4.45;;;3.55;;
24685;SDS011;12804;51.176;4.452;2024-01-06T10:06:17;7.00;;;3.67;;
24685;SDS011;12804;51.176;4.452;2024-01-06T10:08:44;6.47;;;3.90;;
24685;SDS011;12804;51.176;4.452;2024-01-06T10:11:13;3.80;;;3.28;;
24685;SDS011;12804;51.176;4.452;2024-01-06T10:13:39;5.55;;;4.10;;
24685;SDS011;12804;51.176;4.452;2024-01-06T10:16:05;8.00;;;3.85;;
24685;SDS011;12804;51.176;4.452;2024-01-06T10:18:31;6.75;;;4.55;;
24685;SDS011;12804;51.176;4.452;2024-01-06T10:20:58;5.90;;;4.38;;
24685;SDS011;12804;51.176;4.452;2024-01-06T10:23:25;6.75;;;4.13;;
24685;SDS011;12804;51.176;4.452;2024-01-06T10:25:52;5.75;;;4.47;;
24685;SDS011;12804;51.176;4.452;2024-01-06T10:28:20;6.20;;;4.47;;
24685;SDS011;12804;51.176;4.452;2024-01-06T10:30:48;5.63;;;4.53;;
24685;SDS011;12804;51.176;4.452;2024-01-06T10:33:16;5.55;;;4.45;;
24685;SDS011;12804;51.176;4.452;2024-01-06T10:35:42;7.38;;;4.50;;
24685;SDS011;12804;51.176;4.452;2024-01-06T10:38:09;4.80;;;4.30;;
24685;SDS011;12804;51.176;4.452;2024-01-06T10:40:36;6.35;;;4.20;;
24685;SDS011;12804;51.176;4.452;2024-01-06T10:43:02;5.03;;;4.07;;
24685;SDS011;12804;51.176;4.452;2024-01-06T10:45:29;5.40;;;4.28;;
24685;SDS011;12804;51.176;4.452;2024-01-06T10:47:55;6.22;;;4.00;;
24685;SDS011;12804;51.176;4.452;2024-01-06T10:50:22;4.85;;;4.00;;
24685;SDS011;12804;51.176;4.452;2024-01-06T10:52:48;5.30;;;3.80;;
24685;SDS011;12804;51.176;4.452;2024-01-06T10:55:17;4.80;;;3.90;;
24685;SDS011;12804;51.176;4.452;2024-01-06T10:57:45;5.45;;;4.00;;
24685;SDS011;12804;51.176;4.452;2024-01-06T11:00:14;6.40;;;4.15;;
24685;SDS011;12804;51.176;4.452;2024-01-06T11:02:40;5.72;;;3.90;;
24685;SDS011;12804;51.176;4.452;2024-01-06T11:05:07;3.90;;;3.38;;
24685;SDS011;12804;51.176;4.452;2024-01-06T11:07:35;5.38;;;3.55;;
24685;SDS011;12804;51.176;4.452;2024-01-06T11:10:04;5.55;;;3.65;;
24685;SDS011;12804;51.176;4.452;2024-01-06T11:12:31;5.07;;;3.67;;
24685;SDS011;12804;51.176;4.452;2024-01-06T11:14:57;5.32;;;3.50;;
24685;SDS011;12804;51.176;4.452;2024-01-06T11:20:23;5.32;;;4.00;;
24685;SDS011;12804;51.176;4.452;2024-01-06T11:22:52;6.38;;;4.28;;
24685;SDS011;12804;51.176;4.452;2024-01-06T11:25:18;5.25;;;4.28;;
24685;SDS011;12804;51.176;4.452;2024-01-06T11:27:46;6.13;;;4.43;;
24685;SDS011;12804;51.176;4.452;2024-01-06T11:30:24;5.35;;;4.55;;
24685;SDS011;12804;51.176;4.452;2024-01-06T11:32:52;8.13;;;5.03;;
24685;SDS011;12804;51.176;4.452;2024-01-06T11:35:18;11.50;;;6.50;;
24685;SDS011;12804;51.176;4.452;2024-01-06T11:43:31;7.97;;;5.35;;
24685;SDS011;12804;51.176;4.452;2024-01-06T11:45:39;7.45;;;4.72;;
24685;SDS011;12804;51.176;4.452;2024-01-06T11:48:07;7.15;;;4.63;;
24685;SDS011;12804;51.176;4.452;2024-01-06T11:50:36;6.68;;;4.18;;
24685;SDS011;12804;51.176;4.452;2024-01-06T11:53:03;5.18;;;4.38;;
24685;SDS011;12804;51.176;4.452;2024-01-06T11:55:30;8.02;;;4.85;;
24685;SDS011;12804;51.176;4.452;2024-01-06T11:57:57;5.45;;;4.75;;
24685;SDS011;12804;51.176;4.452;2024-01-06T12:00:27;6.15;;;4.57;;
24685;SDS011;12804;51.176;4.452;2024-01-06T12:02:58;8.30;;;4.55;;
24685;SDS011;12804;51.176;4.452;2024-01-06T12:05:26;5.43;;;4.47;;
24685;SDS011;12804;51.176;4.452;2024-01-06T12:07:56;4.53;;;3.75;;
24685;SDS011;12804;51.176;4.452;2024-01-06T12:10:25;7.93;;;4.53;;
24685;SDS011;12804;51.176;4.452;2024-01-06T12:15:25;6.53;;;3.70;;
24685;SDS011;12804;51.176;4.452;2024-01-06T12:17:52;4.07;;;3.55;;
24685;SDS011;12804;51.176;4.452;2024-01-06T12:20:21;4.80;;;3.65;;
24685;SDS011;12804;51.176;4.452;2024-01-06T12:22:49;5.97;;;3.85;;
24685;SDS011;12804;51.176;4.452;2024-01-06T12:25:17;3.92;;;3.50;;
24685;SDS011;12804;51.176;4.452;2024-01-06T12:27:43;5.35;;;3.65;;
24685;SDS011;12804;51.176;4.452;2024-01-06T12:30:12;4.68;;;3.30;;
24685;SDS011;12804;51.176;4.452;2024-01-06T12:32:44;4.85;;;3.42;;
24685;SDS011;12804;51.176;4.452;2024-01-06T12:35:11;5.57;;;3.13;;
24685;SDS011;12804;51.176;4.452;2024-01-06T12:37:37;4.93;;;2.70;;
24685;SDS011;12804;51.176;4.452;2024-01-06T12:40:04;5.07;;;3.35;;
24685;SDS011;12804;51.176;4.452;2024-01-06T12:42:30;3.92;;;2.67;;
24685;SDS011;12804;51.176;4.452;2024-01-06T12:44:56;3.30;;;2.90;;
24685;SDS011;12804;51.176;4.452;2024-01-06T12:47:22;5.20;;;3.00;;
24685;SDS011;12804;51.176;4.452;2024-01-06T12:49:49;4.95;;;2.72;;
24685;SDS011;12804;51.176;4.452;2024-01-06T12:52:15;5.43;;;2.75;;
24685;SDS011;12804;51.176;4.452;2024-01-06T12:54:40;3.45;;;2.90;;
24685;SDS011;12804;51.176;4.452;2024-01-06T12:57:07;3.30;;;3.00;;
24685;SDS011;12804;51.176;4.452;2024-01-06T12:59:33;4.80;;;3.63;;
24685;SDS011;12804;51.176;4.452;2024-01-06T13:01:58;4.50;;;3.17;;
24685;SDS011;12804;51.176;4.452;2024-01-06T13:04:24;4.32;;;3.13;;
24685;SDS011;12804;51.176;4.452;2024-01-06T13:06:50;3.67;;;2.88;;
24685;SDS011;12804;51.176;4.452;2024-01-06T13:09:16;6.88;;;3.20;;
24685;SDS011;12804;51.176;4.452;2024-01-06T13:11:42;3.15;;;2.83;;
24685;SDS011;12804;51.176;4.452;2024-01-06T13:14:11;5.35;;;3.65;;
24685;SDS011;12804;51.176;4.452;2024-01-06T13:16:37;4.50;;;3.17;;
24685;SDS011;12804;51.176;4.452;2024-01-06T13:19:03;6.28;;;3.08;;
24685;SDS011;12804;51.176;4.452;2024-01-06T13:21:29;3.92;;;3.35;;
24685;SDS011;12804;51.176;4.452;2024-01-06T13:23:55;4.93;;;3.30;;
24685;SDS011;12804;51.176;4.452;2024-01-06T13:26:26;4.45;;;3.40;;
24685;SDS011;12804;51.176;4.452;2024-01-06T13:28:53;3.78;;;3.08;;
24685;SDS011;12804;51.176;4.452;2024-01-06T13:31:19;5.70;;;3.42;;
24685;SDS011;12804;51.176;4.452;2024-01-06T13:33:45;6.53;;;3.22;;
24685;SDS011;12804;51.176;4.452;2024-01-06T13:36:11;6.30;;;3.83;;
24685;SDS011;12804;51.176;4.452;2024-01-06T13:38:37;4.72;;;3.50;;
24685;SDS011;12804;51.176;4.452;2024-01-06T13:41:04;6.13;;;3.90;;
24685;SDS011;12804;51.176;4.452;2024-01-06T13:43:30;4.75;;;3.42;;
24685;SDS011;12804;51.176;4.452;2024-01-06T13:45:57;4.03;;;3.30;;
24685;SDS011;12804;51.176;4.452;2024-01-06T13:48:23;3.45;;;2.80;;
24685;SDS011;12804;51.176;4.452;2024-01-06T13:50:48;3.95;;;3.10;;
24685;SDS011;12804;51.176;4.452;2024-01-06T13:53:15;4.88;;;3.10;;
24685;SDS011;12804;51.176;4.452;2024-01-06T13:55:41;8.10;;;3.33;;
24685;SDS011;12804;51.176;4.452;2024-01-06T13:58:07;6.22;;;3.88;;
24685;SDS011;12804;51.176;4.452;2024-01-06T14:00:34;7.80;;;3.42;;
24685;SDS011;12804;51.176;4.452;2024-01-06T14:03:01;5.28;;;3.47;;
24685;SDS011;12804;51.176;4.452;2024-01-06T14:05:28;5.38;;;3.40;;
24685;SDS011;12804;51.176;4.452;2024-01-06T14:07:54;4.78;;;3.28;;
24685;SDS011;12804;51.176;4.452;2024-01-06T14:10:20;10.05;;;5.68;;
24685;SDS011;12804;51.176;4.452;2024-01-06T14:12:46;12.55;;;6.95;;
24685;SDS011;12804;51.176;4.452;2024-01-06T14:15:12;8.27;;;4.68;;
24685;SDS011;12804;51.176;4.452;2024-01-06T14:17:38;4.32;;;3.38;;
24685;SDS011;12804;51.176;4.452;2024-01-06T14:20:04;4.60;;;3.70;;
24685;SDS011;12804;51.176;4.452;2024-01-06T14:22:31;8.07;;;4.40;;
24685;SDS011;12804;51.176;4.452;2024-01-06T14:24:56;7.25;;;3.95;;
24685;SDS011;12804;51.176;4.452;2024-01-06T14:27:22;6.07;;;3.60;;
24685;SDS011;12804;51.176;4.452;2024-01-06T14:29:48;5.57;;;3.25;;
24685;SDS011;12804;51.176;4.452;2024-01-06T14:32:14;5.43;;;3.30;;
24685;SDS011;12804;51.176;4.452;2024-01-06T14:34:40;4.57;;;3.25;;
24685;SDS011;12804;51.176;4.452;2024-01-06T14:37:06;4.10;;;3.28;;
24685;SDS011;12804;51.176;4.452;2024-01-06T14:39:31;5.55;;;3.20;;
24685;SDS011;12804;51.176;4.452;2024-01-06T14:41:57;3.55;;;3.22;;
24685;SDS011;12804;51.176;4.452;2024-01-06T14:44:23;4.13;;;2.90;;
24685;SDS011;12804;51.176;4.452;2024-01-06T14:46:52;2.92;;;2.17;;
24685;SDS011;12804;51.176;4.452;2024-01-06T14:49:18;2.35;;;1.90;;
24685;SDS011;12804;51.176;4.452;2024-01-06T14:51:43;4.40;;;2.63;;